This is the latest recevied weather packets stored in our database for station/object KA7RLM. If no packets are shown the sender has not sent any weather packets the latest 10 day(s).
| Time | Temp. | Humidity | Pressure | Rain* | Wind** | Luminosity | Snow |
|---|---|---|---|---|---|---|---|
| 1778024419 | 19.44° C | 63% | 1015.7 hPa | 0 mm | - | - | - |
| 1778022032 | 19.44° C | 65% | 1015.9 hPa | 0 mm | - | - | - |
| 1778020239 | 19.44° C | 66% | 1016.4 hPa | 0 mm | - | - | - |
| 1778017217 | 18.33° C | 68% | 1016.7 hPa | 0 mm | - | - | - |
| 1778013022 | 16.11° C | 74% | 1016.9 hPa | 0 mm | - | - | - |
| 1778010617 | 16.11° C | 75% | 1016.9 hPa | 0 mm | - | - | - |
| 1778009418 | 16.11° C | 75% | 1016.9 hPa | 0 mm | - | - | - |
| 1778007028 | 15.56° C | 76% | 1016.9 hPa | 0 mm | - | - | - |
| 1778004024 | 14.44° C | 80% | 1016.9 hPa | 0 mm | - | - | - |
| 1778002831 | 14.44° C | 81% | 1016.8 hPa | 0 mm | - | - | - |
| 1778001620 | 14.44° C | 81% | 1016.7 hPa | 0 mm | - | - | - |
| 1777997438 | 13.89° C | 84% | 1016.4 hPa | 0 mm | - | - | - |
| 1777996836 | 13.89° C | 85% | 1016.4 hPa | 0 mm | - | - | - |
| 1777992031 | 12.78° C | 87% | 1015.9 hPa | 0 mm | - | - | - |
| 1777987842 | 12.78° C | 88% | 1015.2 hPa | 0 mm | - | - | - |
| 1777986026 | 12.78° C | 88% | 1014.9 hPa | 0 mm | - | - | - |
| 1777985423 | 12.78° C | 88% | 1014.9 hPa | 0 mm | - | - | - |
| 1777982449 | 12.78° C | 89% | 1014.7 hPa | 0 mm | - | - | - |
| 1777977627 | 12.78° C | 89% | 1014.3 hPa | 0 mm | - | - | - |
| 1777973432 | 12.78° C | 91% | 1013.9 hPa | 0 mm | - | - | - |
| 1777971020 | 12.22° C | 94% | 1013.8 hPa | 0 mm | - | - | - |
| 1777956639 | 15.56° C | 77% | 1011.7 hPa | 0 mm | - | - | - |
| 1777954824 | 16.67° C | 72% | 1011.4 hPa | 0 mm | - | - | - |
| 1777952458 | 18.33° C | 66% | 1010.8 hPa | 0 mm | - | - | - |
| 1777943421 | 26.11° C | 46% | 1009.8 hPa | 0 mm | - | - | - |
* Rain latest hour (hover to see other rain measurements)
** Current wind speed in m/s (hover to see current wind gust speed)